createdAt,value
2023-03-31T00:01:06.876Z,83.69
2023-03-31T00:03:39.048Z,83.73
2023-03-31T00:06:08.380Z,83.80
2023-03-31T00:08:40.508Z,83.57
2023-03-31T00:11:12.171Z,83.77
2023-03-31T00:13:40.270Z,83.45
2023-03-31T00:16:11.489Z,83.72
2023-03-31T00:18:41.290Z,83.80
2023-03-31T00:21:14.816Z,83.62
2023-03-31T00:23:43.597Z,83.80
2023-03-31T00:26:11.773Z,83.54
2023-03-31T00:28:39.884Z,83.53
2023-03-31T00:31:09.687Z,83.83
2023-03-31T00:33:42.334Z,84.02
2023-03-31T00:36:12.629Z,84.26
2023-03-31T00:38:40.653Z,84.54
2023-03-31T00:41:09.282Z,84.46
2023-03-31T00:43:39.979Z,84.61
2023-03-31T00:46:18.136Z,84.81
2023-03-31T00:48:50.257Z,84.97
2023-03-31T00:51:20.084Z,85.17
2023-03-31T00:53:51.884Z,85.20
2023-03-31T00:56:20.609Z,85.27
2023-03-31T00:58:50.039Z,85.53
2023-03-31T01:01:24.884Z,85.44
2023-03-31T01:03:53.840Z,85.37
2023-03-31T01:06:23.861Z,85.53
2023-03-31T01:08:53.143Z,85.82
2023-03-31T01:11:22.517Z,85.86
2023-03-31T01:13:56.125Z,85.88
2023-03-31T01:16:28.834Z,85.97
2023-03-31T01:18:59.982Z,85.87
2023-03-31T01:21:54.503Z,85.93
2023-03-31T01:24:49.941Z,85.83
2023-03-31T01:27:39.998Z,85.64
2023-03-31T01:30:36.431Z,85.59
2023-03-31T01:33:25.368Z,85.40
2023-03-31T01:36:25.335Z,85.21
2023-03-31T01:39:14.814Z,85.09
2023-03-31T01:41:51.404Z,84.94
2023-03-31T01:44:24.742Z,84.89
2023-03-31T01:46:57.744Z,84.99
2023-03-31T01:49:31.538Z,84.90
2023-03-31T01:52:04.856Z,84.87
2023-03-31T01:54:39.540Z,84.77
2023-03-31T01:57:13.929Z,84.75
2023-03-31T01:59:47.442Z,84.72
2023-03-31T02:02:18.896Z,84.88
2023-03-31T02:04:49.666Z,84.66
2023-03-31T02:07:21.999Z,84.58
2023-03-31T02:09:51.086Z,84.70
2023-03-31T02:12:25.855Z,84.63
2023-03-31T02:14:55.786Z,84.53
2023-03-31T02:17:30.549Z,84.62
2023-03-31T02:20:02.580Z,84.56
2023-03-31T02:22:35.129Z,84.63
2023-03-31T02:25:04.770Z,84.59
2023-03-31T02:27:35.847Z,84.51
2023-03-31T02:30:04.993Z,84.62
2023-03-31T02:32:35.324Z,84.75
2023-03-31T02:35:04.088Z,84.77
2023-03-31T02:37:32.596Z,84.85
2023-03-31T02:40:06.643Z,84.75
2023-03-31T02:42:37.573Z,84.77
2023-03-31T02:45:39.584Z,84.75
2023-03-31T02:48:10.743Z,84.78
2023-03-31T02:50:49.039Z,84.79
2023-03-31T02:53:21.567Z,84.85
2023-03-31T02:56:01.409Z,84.97
2023-03-31T02:58:42.135Z,85.00
2023-03-31T03:01:29.301Z,85.07
2023-03-31T03:04:09.564Z,85.15
2023-03-31T03:06:43.411Z,85.21
2023-03-31T03:09:24.822Z,85.26
2023-03-31T03:11:57.523Z,85.46
2023-03-31T03:14:30.912Z,85.51
2023-03-31T03:17:01.230Z,85.57
2023-03-31T03:19:29.515Z,85.58
2023-03-31T03:21:57.538Z,85.67
2023-03-31T03:24:29.395Z,85.58
2023-03-31T03:26:57.926Z,85.67
2023-03-31T03:29:30.800Z,85.62
2023-03-31T03:31:59.272Z,85.65
2023-03-31T03:34:27.291Z,85.65
2023-03-31T03:36:55.680Z,85.61
2023-03-31T03:39:23.950Z,85.61
2023-03-31T03:41:51.938Z,85.71
2023-03-31T03:44:20.389Z,85.62
2023-03-31T03:46:50.157Z,85.54
2023-03-31T03:49:18.889Z,85.59
2023-03-31T03:51:47.183Z,85.65
2023-03-31T03:54:15.598Z,85.74
2023-03-31T03:56:44.216Z,85.90
2023-03-31T03:59:13.293Z,85.98
2023-03-31T04:01:41.810Z,86.16
2023-03-31T04:04:11.085Z,86.44
2023-03-31T04:06:39.377Z,86.67
2023-03-31T04:09:07.495Z,86.78
2023-03-31T04:11:36.617Z,86.83
2023-03-31T04:14:05.411Z,86.80
2023-03-31T04:16:34.870Z,86.92
2023-03-31T04:19:04.928Z,86.95
2023-03-31T04:21:35.691Z,87.06
2023-03-31T04:24:04.747Z,87.20
2023-03-31T04:26:43.589Z,87.32
2023-03-31T04:29:13.494Z,87.55
2023-03-31T04:31:44.057Z,87.66
2023-03-31T04:34:15.897Z,87.86
2023-03-31T04:36:49.731Z,87.97
2023-03-31T04:39:27.153Z,88.00
2023-03-31T04:41:55.345Z,88.15
2023-03-31T04:44:23.691Z,88.33
2023-03-31T04:46:51.699Z,88.32
2023-03-31T04:49:20.079Z,88.40
2023-03-31T04:51:49.959Z,88.51
2023-03-31T04:54:18.201Z,88.64
2023-03-31T04:56:47.579Z,88.65
2023-03-31T04:59:16.202Z,88.67
2023-03-31T05:01:45.494Z,88.78
2023-03-31T05:04:13.903Z,88.83
2023-03-31T05:06:42.182Z,88.89
2023-03-31T05:09:11.780Z,88.82
2023-03-31T05:11:40.313Z,88.82
2023-03-31T05:14:08.418Z,88.74
2023-03-31T05:16:36.538Z,88.71
2023-03-31T05:19:06.782Z,88.71
2023-03-31T05:21:34.787Z,88.64
2023-03-31T05:24:03.161Z,88.54
2023-03-31T05:26:32.644Z,88.27
2023-03-31T05:29:01.179Z,87.77
2023-03-31T05:31:29.326Z,86.75
2023-03-31T05:33:57.409Z,85.80
2023-03-31T05:36:27.225Z,85.13
2023-03-31T05:38:56.740Z,84.18
2023-03-31T05:41:24.752Z,83.18
2023-03-31T05:43:54.278Z,82.42
2023-03-31T05:46:22.351Z,82.55
2023-03-31T05:48:50.865Z,82.38
2023-03-31T05:51:19.443Z,82.38
2023-03-31T05:53:48.001Z,82.46
2023-03-31T05:56:16.308Z,83.65
2023-03-31T05:58:44.396Z,83.64
2023-03-31T06:01:20.366Z,83.99
2023-03-31T06:03:49.503Z,84.47
2023-03-31T06:06:18.136Z,83.78
2023-03-31T06:08:48.078Z,82.62
2023-03-31T06:11:19.420Z,83.23
2023-03-31T06:13:48.510Z,82.48
2023-03-31T06:16:19.249Z,80.89
2023-03-31T06:18:47.514Z,80.06
2023-03-31T06:21:17.704Z,79.82
2023-03-31T06:23:45.984Z,79.70
2023-03-31T06:26:16.305Z,77.73
2023-03-31T06:28:46.749Z,76.40
2023-03-31T06:31:18.380Z,75.85
2023-03-31T06:33:46.823Z,75.25
2023-03-31T06:36:18.197Z,73.60
2023-03-31T06:38:48.631Z,72.30
2023-03-31T06:41:21.697Z,71.38
2023-03-31T06:43:50.862Z,70.33
2023-03-31T06:46:20.555Z,69.50
2023-03-31T06:48:49.074Z,70.59
2023-03-31T06:51:18.680Z,69.46
2023-03-31T06:53:47.025Z,69.82
2023-03-31T06:56:15.304Z,68.70
2023-03-31T06:58:43.506Z,67.54
2023-03-31T07:01:12.616Z,66.93
2023-03-31T07:03:44.600Z,66.20
2023-03-31T07:06:13.946Z,66.47
2023-03-31T07:08:42.333Z,67.07
2023-03-31T07:11:11.073Z,66.51
2023-03-31T07:13:39.604Z,66.80
2023-03-31T07:16:09.985Z,66.69
2023-03-31T07:18:41.981Z,65.92
2023-03-31T07:21:11.991Z,66.66
2023-03-31T07:23:40.891Z,66.16
2023-03-31T07:26:11.291Z,65.69
2023-03-31T07:28:41.701Z,65.82
2023-03-31T07:31:14.697Z,66.32
2023-03-31T07:33:43.339Z,65.62
2023-03-31T07:36:16.192Z,64.58
2023-03-31T07:38:48.993Z,64.52
2023-03-31T07:41:18.596Z,64.99
2023-03-31T07:43:47.446Z,62.73
2023-03-31T07:46:17.591Z,63.47
2023-03-31T07:48:46.840Z,62.69
2023-03-31T07:51:19.585Z,63.05
2023-03-31T07:53:49.413Z,64.78
2023-03-31T07:56:18.583Z,65.94
2023-03-31T07:58:49.724Z,66.51
2023-03-31T08:01:20.195Z,67.20
2023-03-31T08:03:49.858Z,67.28
2023-03-31T08:06:24.150Z,67.55
2023-03-31T08:08:52.425Z,68.71
2023-03-31T08:11:21.576Z,68.37
2023-03-31T08:13:49.734Z,68.56
2023-03-31T08:16:18.378Z,68.23
2023-03-31T08:18:47.220Z,68.67
2023-03-31T08:21:15.681Z,68.73
2023-03-31T08:23:45.458Z,69.07
2023-03-31T08:26:17.896Z,69.11
2023-03-31T08:28:48.627Z,68.11
2023-03-31T08:31:20.242Z,68.37
2023-03-31T08:33:48.649Z,68.91
2023-03-31T08:36:16.981Z,67.93
2023-03-31T08:38:48.161Z,67.11
2023-03-31T08:41:28.562Z,66.39
2023-03-31T08:43:57.518Z,65.27
2023-03-31T08:46:26.592Z,63.47
2023-03-31T08:48:57.188Z,63.44
2023-03-31T08:51:28.744Z,63.80
2023-03-31T08:54:03.859Z,62.95
2023-03-31T08:56:37.956Z,61.27
2023-03-31T08:59:07.151Z,59.80
2023-03-31T09:01:54.529Z,59.77
2023-03-31T09:04:34.116Z,59.31
2023-03-31T09:07:05.717Z,59.80
2023-03-31T09:09:41.423Z,61.10
2023-03-31T09:12:14.119Z,59.58
2023-03-31T09:14:43.969Z,59.66
2023-03-31T09:17:18.995Z,57.81
2023-03-31T09:19:50.563Z,59.66
2023-03-31T09:22:22.535Z,61.10
2023-03-31T09:24:57.481Z,61.81
2023-03-31T09:27:31.364Z,63.44
2023-03-31T09:30:01.542Z,64.16
2023-03-31T09:32:31.254Z,64.53
2023-03-31T09:35:03.148Z,64.05
2023-03-31T09:37:35.206Z,65.25
2023-03-31T09:40:11.673Z,65.36
2023-03-31T09:42:40.182Z,65.89
2023-03-31T09:45:15.972Z,66.69
2023-03-31T09:47:46.455Z,69.33
2023-03-31T09:50:15.466Z,70.96
2023-03-31T09:52:45.658Z,71.19
2023-03-31T09:55:36.115Z,70.91
2023-03-31T09:58:10.713Z,71.44
2023-03-31T10:00:44.233Z,71.49
2023-03-31T10:03:14.881Z,71.49
2023-03-31T10:05:50.807Z,72.35
2023-03-31T10:08:26.781Z,72.69
2023-03-31T10:10:57.771Z,73.29
2023-03-31T10:13:29.510Z,74.19
2023-03-31T10:16:05.881Z,75.69
2023-03-31T10:18:37.209Z,76.06
2023-03-31T10:21:09.260Z,77.52
2023-03-31T10:23:39.199Z,78.56
2023-03-31T10:26:15.367Z,78.62
2023-03-31T10:28:43.911Z,79.11
2023-03-31T10:31:13.264Z,80.15
2023-03-31T10:33:45.134Z,80.41
2023-03-31T10:36:20.983Z,79.92
2023-03-31T10:38:50.137Z,80.01
2023-03-31T10:41:23.870Z,80.50
2023-03-31T10:43:53.627Z,80.37
2023-03-31T10:46:22.792Z,81.48
2023-03-31T10:48:52.575Z,80.46
2023-03-31T10:51:22.864Z,79.60
2023-03-31T10:53:53.452Z,78.25
2023-03-31T10:56:38.090Z,76.63
2023-03-31T10:59:25.488Z,77.06
2023-03-31T11:02:06.040Z,74.84
2023-03-31T11:04:51.326Z,74.37
2023-03-31T11:07:29.457Z,73.06
2023-03-31T11:10:22.366Z,73.08
2023-03-31T11:12:57.726Z,74.15
2023-03-31T11:15:34.948Z,74.31
2023-03-31T11:18:17.950Z,76.01
2023-03-31T11:20:55.767Z,79.02
2023-03-31T11:23:29.135Z,81.10
2023-03-31T11:26:02.375Z,82.44
2023-03-31T11:28:59.802Z,84.27
2023-03-31T11:31:48.913Z,85.99
2023-03-31T11:34:35.856Z,87.25
2023-03-31T11:37:32.206Z,87.95
2023-03-31T11:40:23.162Z,88.48
2023-03-31T11:42:55.573Z,89.09
2023-03-31T11:45:27.271Z,89.29
2023-03-31T11:48:06.183Z,89.83
2023-03-31T11:50:40.212Z,89.94
2023-03-31T11:53:16.230Z,90.15
2023-03-31T11:55:44.903Z,89.16
2023-03-31T11:58:17.250Z,88.60
2023-03-31T12:00:47.994Z,86.36
2023-03-31T12:03:24.356Z,86.51
2023-03-31T12:05:55.205Z,85.13
2023-03-31T12:08:27.682Z,84.14
2023-03-31T12:10:56.417Z,83.94
2023-03-31T12:13:42.039Z,83.85
2023-03-31T12:16:15.842Z,84.22
2023-03-31T12:19:00.931Z,83.18
2023-03-31T12:21:30.723Z,83.43
2023-03-31T12:24:02.771Z,83.15
2023-03-31T12:26:40.593Z,83.77
2023-03-31T12:29:22.789Z,83.46
2023-03-31T12:31:54.926Z,83.52
2023-03-31T12:34:24.736Z,84.98
2023-03-31T12:37:10.728Z,86.09
2023-03-31T12:39:46.527Z,86.74
2023-03-31T12:42:43.573Z,88.13
2023-03-31T12:45:19.117Z,89.02
2023-03-31T12:48:00.107Z,89.44
2023-03-31T12:50:38.470Z,89.68
2023-03-31T12:53:14.655Z,89.93
2023-03-31T12:55:46.520Z,90.27
2023-03-31T12:58:50.978Z,90.45
2023-03-31T13:01:20.770Z,90.52
2023-03-31T13:04:11.557Z,90.76
2023-03-31T13:07:01.156Z,91.26
2023-03-31T13:09:47.456Z,91.49
2023-03-31T13:12:19.299Z,91.84
2023-03-31T13:14:48.947Z,92.16
2023-03-31T13:17:27.639Z,92.31
2023-03-31T13:19:58.764Z,92.70
2023-03-31T13:22:32.810Z,92.70
2023-03-31T13:25:41.902Z,92.24
2023-03-31T13:28:18.320Z,92.00
2023-03-31T13:30:52.438Z,91.91
2023-03-31T13:33:27.194Z,91.50
2023-03-31T13:36:18.575Z,91.60
2023-03-31T13:38:54.211Z,91.69
2023-03-31T13:41:31.031Z,91.71
2023-03-31T13:44:17.283Z,91.61
2023-03-31T13:47:00.291Z,91.56
2023-03-31T13:49:54.276Z,91.98
2023-03-31T13:52:37.182Z,92.07
2023-03-31T13:55:19.805Z,91.82
2023-03-31T13:58:05.399Z,92.09
2023-03-31T14:00:47.767Z,92.26
2023-03-31T14:03:27.085Z,91.83
2023-03-31T14:05:58.636Z,92.12
2023-03-31T14:08:37.891Z,92.14
2023-03-31T14:11:24.182Z,92.10
2023-03-31T14:14:03.507Z,92.14
2023-03-31T14:16:34.484Z,92.13
2023-03-31T14:19:12.564Z,92.24
2023-03-31T14:21:45.149Z,92.39
2023-03-31T14:24:20.837Z,92.21
2023-03-31T14:26:56.499Z,92.23
2023-03-31T14:29:29.570Z,92.33
2023-03-31T14:32:04.481Z,91.99
2023-03-31T14:34:43.308Z,91.77
2023-03-31T14:37:13.748Z,91.90
2023-03-31T14:39:45.432Z,91.81
2023-03-31T14:42:15.738Z,91.91
2023-03-31T14:44:48.286Z,91.87
2023-03-31T14:47:21.670Z,91.78
2023-03-31T14:50:13.301Z,92.04
2023-03-31T14:52:41.565Z,92.12
2023-03-31T14:55:17.156Z,92.06
2023-03-31T14:57:47.846Z,92.02
2023-03-31T15:00:19.613Z,92.21
2023-03-31T15:02:48.464Z,92.37
2023-03-31T15:05:25.897Z,92.46
2023-03-31T15:07:58.490Z,92.11
2023-03-31T15:10:33.821Z,92.13
2023-03-31T15:13:07.369Z,92.15
2023-03-31T15:15:35.788Z,92.28
2023-03-31T15:18:04.775Z,92.31
2023-03-31T15:20:38.069Z,92.36
2023-03-31T15:23:21.255Z,92.54
2023-03-31T15:25:52.090Z,92.61
2023-03-31T15:28:20.576Z,92.45
2023-03-31T15:30:54.323Z,92.44
2023-03-31T15:33:32.987Z,92.37
2023-03-31T15:36:01.681Z,92.52
2023-03-31T15:38:33.110Z,92.71
2023-03-31T15:41:02.810Z,92.49
2023-03-31T15:43:36.103Z,92.37
2023-03-31T15:46:05.742Z,92.31
2023-03-31T15:48:40.101Z,92.50
2023-03-31T15:51:22.925Z,92.41
2023-03-31T15:53:52.695Z,92.28
2023-03-31T15:56:35.904Z,92.22
2023-03-31T16:02:14.083Z,92.35
2023-03-31T16:04:42.505Z,92.34
2023-03-31T16:07:19.477Z,92.34
2023-03-31T16:09:50.350Z,92.40
2023-03-31T16:12:22.628Z,92.50
2023-03-31T16:14:51.626Z,92.56
2023-03-31T16:17:25.993Z,92.50
2023-03-31T16:19:59.755Z,92.37
2023-03-31T16:22:41.240Z,92.20
2023-03-31T16:25:11.823Z,92.30
2023-03-31T16:27:46.799Z,92.22
2023-03-31T16:30:18.518Z,91.98
2023-03-31T16:33:12.619Z,91.84
2023-03-31T16:35:44.701Z,91.92
2023-03-31T16:38:16.664Z,91.90
2023-03-31T16:40:46.336Z,91.83
2023-03-31T16:43:19.657Z,91.89
2023-03-31T16:45:51.553Z,91.99
2023-03-31T16:48:21.140Z,92.08
2023-03-31T16:50:54.247Z,92.02
2023-03-31T16:53:27.825Z,92.09
2023-03-31T16:55:57.257Z,92.14
2023-03-31T16:58:28.544Z,92.15
2023-03-31T17:00:57.873Z,92.10
2023-03-31T17:03:26.970Z,92.07
2023-03-31T17:05:58.475Z,92.01
2023-03-31T17:08:27.851Z,92.05
2023-03-31T17:10:58.146Z,92.16
2023-03-31T17:13:27.898Z,92.28
2023-03-31T17:16:01.519Z,92.37
2023-03-31T17:18:41.607Z,92.46
2023-03-31T17:21:11.672Z,92.55
2023-03-31T17:23:40.926Z,92.62
2023-03-31T17:26:10.798Z,92.76
2023-03-31T17:28:41.093Z,92.93
2023-03-31T17:31:13.400Z,93.12
2023-03-31T17:33:41.957Z,93.24
2023-03-31T17:36:12.951Z,93.27
2023-03-31T17:38:41.986Z,93.36
2023-03-31T17:41:12.828Z,93.42
2023-03-31T17:43:45.231Z,93.43
2023-03-31T17:46:13.670Z,93.49
2023-03-31T17:48:43.047Z,93.51
2023-03-31T17:51:14.249Z,93.59
2023-03-31T17:53:42.555Z,93.72
2023-03-31T17:56:10.847Z,93.75
2023-03-31T17:58:39.512Z,93.76
2023-03-31T18:01:10.364Z,93.86
2023-03-31T18:03:39.232Z,93.96
2023-03-31T18:06:11.541Z,94.07
2023-03-31T18:08:41.789Z,94.06
2023-03-31T18:11:13.393Z,94.13
2023-03-31T18:13:41.956Z,94.20
2023-03-31T18:16:12.986Z,94.30
2023-03-31T18:18:42.525Z,94.38
2023-03-31T18:21:11.930Z,94.41
2023-03-31T18:23:45.208Z,94.47
2023-03-31T18:26:14.282Z,94.54
2023-03-31T18:28:43.593Z,94.56
2023-03-31T18:31:13.610Z,94.53
2023-03-31T18:33:42.883Z,94.53
2023-03-31T18:36:17.095Z,94.58
2023-03-31T18:38:45.631Z,94.55
2023-03-31T18:41:14.805Z,94.54
2023-03-31T18:43:43.485Z,94.59
2023-03-31T18:46:13.987Z,94.60
2023-03-31T18:48:42.771Z,94.59
2023-03-31T18:51:10.729Z,94.66
2023-03-31T18:53:39.922Z,94.74
2023-03-31T18:56:08.362Z,94.79
2023-03-31T18:58:37.284Z,94.81
2023-03-31T19:01:05.858Z,94.82
2023-03-31T19:03:36.008Z,94.86
2023-03-31T19:06:06.284Z,94.82
2023-03-31T19:08:34.388Z,94.91
2023-03-31T19:11:08.148Z,94.96
2023-03-31T19:13:36.550Z,95.01
2023-03-31T19:16:04.933Z,95.03
2023-03-31T19:18:33.276Z,95.08
2023-03-31T19:21:02.702Z,95.13
2023-03-31T19:23:31.772Z,95.10
2023-03-31T19:26:00.569Z,95.15
2023-03-31T19:28:30.363Z,95.16
2023-03-31T19:30:59.598Z,95.19
2023-03-31T19:33:27.744Z,95.16
2023-03-31T19:35:55.904Z,95.23
2023-03-31T19:38:26.894Z,95.21
2023-03-31T19:40:56.432Z,95.24
2023-03-31T19:43:25.713Z,95.27
2023-03-31T19:45:55.731Z,95.25
2023-03-31T19:48:28.389Z,95.24
2023-03-31T19:50:59.562Z,95.25
2023-03-31T19:53:30.506Z,95.29
2023-03-31T19:56:03.248Z,95.30
2023-03-31T19:58:35.825Z,95.28
2023-03-31T20:01:07.744Z,95.30
2023-03-31T20:03:36.231Z,95.30
2023-03-31T20:06:07.023Z,95.27
2023-03-31T20:08:37.682Z,95.32
2023-03-31T20:11:07.476Z,95.32
2023-03-31T20:13:38.667Z,95.32
2023-03-31T20:16:09.020Z,95.28
2023-03-31T20:18:38.115Z,95.24
2023-03-31T20:21:08.432Z,95.33
2023-03-31T20:23:40.482Z,95.35
2023-03-31T20:26:09.813Z,95.35
2023-03-31T20:28:40.158Z,95.34
2023-03-31T20:31:08.899Z,95.36
2023-03-31T20:33:40.657Z,95.37
2023-03-31T20:36:10.259Z,95.31
2023-03-31T20:38:40.758Z,95.27
2023-03-31T20:41:10.649Z,95.27
2023-03-31T20:43:39.905Z,95.24
2023-03-31T20:46:09.054Z,95.16
2023-03-31T20:48:38.954Z,95.21
2023-03-31T20:51:08.474Z,95.15
2023-03-31T20:53:42.283Z,95.24
2023-03-31T20:56:12.899Z,95.23
2023-03-31T20:58:43.977Z,95.25
2023-03-31T21:01:13.193Z,95.30
2023-03-31T21:03:43.491Z,95.29
2023-03-31T21:06:13.711Z,95.34
2023-03-31T21:08:42.725Z,95.36
2023-03-31T21:11:12.628Z,95.38
2023-03-31T21:13:41.017Z,95.44
2023-03-31T21:16:09.268Z,95.46
2023-03-31T21:18:37.805Z,95.50
2023-03-31T21:21:07.918Z,95.43
2023-03-31T21:23:36.991Z,95.51
2023-03-31T21:26:07.155Z,95.50
2023-03-31T21:28:38.554Z,95.56
2023-03-31T21:31:09.530Z,95.48
2023-03-31T21:33:39.750Z,95.45
2023-03-31T21:36:09.993Z,95.45
2023-03-31T21:38:39.516Z,95.54
2023-03-31T21:41:09.021Z,95.52
2023-03-31T21:43:39.629Z,95.51
2023-03-31T21:46:08.585Z,95.49
2023-03-31T21:48:38.369Z,95.47
2023-03-31T21:51:08.731Z,95.49
2023-03-31T21:53:36.992Z,95.51
2023-03-31T21:56:07.922Z,95.48
2023-03-31T21:58:36.391Z,95.46
2023-03-31T22:01:07.785Z,95.51
2023-03-31T22:03:36.841Z,95.59
2023-03-31T22:06:07.174Z,95.60
2023-03-31T22:08:36.579Z,95.65
2023-03-31T22:11:07.352Z,95.66
2023-03-31T22:13:36.024Z,95.67
2023-03-31T22:16:04.226Z,95.66
2023-03-31T22:18:33.948Z,95.65
2023-03-31T22:21:02.562Z,95.62
2023-03-31T22:23:30.581Z,95.64
2023-03-31T22:25:58.970Z,95.66
2023-03-31T22:28:27.021Z,95.69
2023-03-31T22:30:55.701Z,95.69
2023-03-31T22:33:23.766Z,95.74
2023-03-31T22:35:53.178Z,95.75
2023-03-31T22:38:21.441Z,95.74
2023-03-31T22:40:49.726Z,95.64
2023-03-31T22:43:17.810Z,95.68
2023-03-31T22:45:46.308Z,95.65
2023-03-31T22:48:14.673Z,95.66
2023-03-31T22:50:43.693Z,95.69
2023-03-31T22:53:13.363Z,95.65
2023-03-31T22:55:53.712Z,95.68
2023-03-31T22:58:25.065Z,95.71
2023-03-31T23:00:57.565Z,95.73
2023-03-31T23:03:25.878Z,95.71
2023-03-31T23:05:54.031Z,95.78
2023-03-31T23:08:24.683Z,95.74
2023-03-31T23:10:58.064Z,95.77
2023-03-31T23:13:26.861Z,95.77
2023-03-31T23:15:56.236Z,95.75
2023-03-31T23:18:25.086Z,95.70
2023-03-31T23:20:54.017Z,95.73
2023-03-31T23:23:22.288Z,95.71
2023-03-31T23:25:51.985Z,95.70
2023-03-31T23:28:20.008Z,95.72
2023-03-31T23:30:56.679Z,95.71
2023-03-31T23:33:25.815Z,95.73
2023-03-31T23:35:54.263Z,95.76
2023-03-31T23:38:22.768Z,95.75
2023-03-31T23:40:52.218Z,95.80
2023-03-31T23:43:21.182Z,95.89
2023-03-31T23:45:49.566Z,95.86
2023-03-31T23:48:17.998Z,95.87
2023-03-31T23:50:46.485Z,95.88
2023-03-31T23:53:14.699Z,95.89
2023-03-31T23:55:43.433Z,95.84
2023-03-31T23:58:13.026Z,95.87
